createdAt,value
2018-08-06T00:00:55.374Z,19.80
2018-08-06T00:03:24.011Z,19.68
2018-08-06T00:05:52.652Z,19.71
2018-08-06T00:08:21.354Z,19.65
2018-08-06T00:10:49.955Z,19.68
2018-08-06T00:13:18.574Z,19.76
2018-08-06T00:15:47.221Z,19.91
2018-08-06T00:18:15.857Z,19.90
2018-08-06T00:20:44.492Z,19.90
2018-08-06T00:23:13.139Z,19.83
2018-08-06T00:25:41.747Z,19.74
2018-08-06T00:28:10.330Z,19.71
2018-08-06T00:30:38.992Z,19.76
2018-08-06T00:33:07.614Z,19.68
2018-08-06T00:35:36.220Z,19.60
2018-08-06T00:38:04.894Z,19.54
2018-08-06T00:40:33.545Z,19.29
2018-08-06T00:43:02.171Z,19.25
2018-08-06T00:45:30.894Z,19.18
2018-08-06T00:47:59.519Z,19.12
2018-08-06T00:50:28.171Z,19.29
2018-08-06T00:52:56.805Z,19.35
2018-08-06T00:55:25.443Z,19.55
2018-08-06T00:57:54.059Z,19.72
2018-08-06T01:00:22.659Z,19.82
2018-08-06T01:02:51.315Z,19.69
2018-08-06T01:05:19.971Z,19.82
2018-08-06T01:07:48.639Z,19.83
2018-08-06T01:10:18.459Z,19.80
2018-08-06T01:12:47.227Z,19.84
2018-08-06T01:15:17.915Z,19.89
2018-08-06T01:17:46.658Z,19.96
2018-08-06T01:20:15.618Z,19.94
2018-08-06T01:22:44.900Z,19.96
2018-08-06T01:25:14.004Z,20.03
2018-08-06T01:27:42.717Z,20.06
2018-08-06T01:30:13.066Z,19.29
2018-08-06T01:32:41.679Z,19.83
2018-08-06T01:35:11.014Z,19.77
2018-08-06T01:37:39.836Z,19.68
2018-08-06T01:40:10.419Z,19.46
2018-08-06T01:42:39.398Z,19.05
2018-08-06T01:45:08.383Z,19.03
2018-08-06T01:47:37.646Z,19.13
2018-08-06T01:50:06.574Z,19.20
2018-08-06T01:52:35.399Z,19.17
2018-08-06T01:55:04.074Z,19.42
2018-08-06T01:57:32.704Z,19.53
2018-08-06T02:00:01.361Z,19.62
2018-08-06T02:02:29.928Z,19.55
2018-08-06T02:04:58.581Z,19.52
2018-08-06T02:07:27.244Z,19.63
2018-08-06T02:09:56.310Z,19.61
2018-08-06T02:12:25.003Z,19.62
2018-08-06T02:14:53.578Z,19.32
2018-08-06T02:17:22.197Z,19.22
2018-08-06T02:19:50.823Z,19.35
2018-08-06T02:22:19.551Z,19.48
2018-08-06T02:24:48.251Z,19.51
2018-08-06T02:27:16.911Z,19.53
2018-08-06T02:29:45.591Z,19.62
2018-08-06T02:32:14.232Z,19.45
2018-08-06T02:34:42.886Z,19.45
2018-08-06T02:37:11.538Z,19.47
2018-08-06T02:39:40.167Z,19.43
2018-08-06T02:42:08.827Z,19.08
2018-08-06T02:44:37.463Z,18.89
2018-08-06T02:47:06.320Z,18.61
2018-08-06T02:49:34.923Z,18.35
2018-08-06T02:52:03.656Z,18.16
2018-08-06T02:54:32.310Z,18.18
2018-08-06T02:57:01.012Z,18.01
2018-08-06T02:59:29.671Z,17.89
2018-08-06T03:01:58.358Z,17.84
2018-08-06T03:04:27.030Z,17.79
2018-08-06T03:06:55.724Z,17.72
2018-08-06T03:09:24.411Z,17.88
2018-08-06T03:11:53.076Z,17.68
2018-08-06T03:14:21.771Z,17.71
2018-08-06T03:16:50.389Z,17.83
2018-08-06T03:19:19.063Z,17.84
2018-08-06T03:21:47.746Z,18.04
2018-08-06T03:24:16.460Z,18.13
2018-08-06T03:26:45.143Z,18.20
2018-08-06T03:29:13.774Z,18.26
2018-08-06T03:31:42.434Z,18.22
2018-08-06T03:34:11.108Z,18.13
2018-08-06T03:36:39.789Z,18.31
2018-08-06T03:39:10.134Z,18.39
2018-08-06T03:41:38.935Z,18.32
2018-08-06T03:44:08.163Z,18.28
2018-08-06T03:46:37.055Z,18.21
2018-08-06T03:49:05.767Z,18.25
2018-08-06T03:51:34.454Z,18.27
2018-08-06T03:54:03.155Z,18.51
2018-08-06T03:56:31.795Z,18.62
2018-08-06T03:59:00.443Z,18.53
2018-08-06T04:01:29.070Z,18.44
2018-08-06T04:03:57.793Z,18.47
2018-08-06T04:06:26.382Z,18.67
2018-08-06T04:08:55.009Z,18.82
2018-08-06T04:11:23.635Z,19.01
2018-08-06T04:13:52.414Z,18.92
2018-08-06T04:16:21.041Z,18.60
2018-08-06T04:18:49.671Z,18.45
2018-08-06T04:21:18.365Z,18.38
2018-08-06T04:23:46.971Z,18.47
2018-08-06T04:26:15.698Z,18.49
2018-08-06T04:28:44.322Z,18.60
2018-08-06T04:31:12.902Z,18.66
2018-08-06T04:33:41.510Z,18.67
2018-08-06T04:36:10.148Z,18.69
2018-08-06T04:38:38.853Z,18.76
2018-08-06T04:41:07.483Z,18.84
2018-08-06T04:43:36.132Z,19.19
2018-08-06T04:46:05.006Z,20.31
2018-08-06T04:48:33.607Z,21.08
2018-08-06T04:51:02.276Z,21.37
2018-08-06T04:53:30.902Z,21.43
2018-08-06T04:55:59.569Z,21.36
2018-08-06T04:58:28.212Z,21.44
2018-08-06T05:00:56.868Z,21.42
2018-08-06T05:03:25.571Z,21.38
2018-08-06T05:05:54.216Z,21.18
2018-08-06T05:08:23.733Z,21.15
2018-08-06T05:10:52.355Z,21.05
2018-08-06T05:13:21.033Z,21.26
2018-08-06T05:15:49.644Z,21.34
2018-08-06T05:18:18.310Z,21.46
2018-08-06T05:20:46.988Z,21.50
2018-08-06T05:23:15.608Z,21.76
2018-08-06T05:25:44.191Z,21.95
2018-08-06T05:28:12.875Z,22.30
2018-08-06T05:30:41.534Z,22.67
2018-08-06T05:33:10.223Z,22.79
2018-08-06T05:35:38.842Z,22.76
2018-08-06T05:38:07.634Z,22.95
2018-08-06T05:40:36.294Z,22.91
2018-08-06T05:43:05.033Z,23.43
2018-08-06T05:45:33.778Z,23.98
2018-08-06T05:48:02.443Z,24.15
2018-08-06T05:50:31.154Z,24.38
2018-08-06T05:52:59.811Z,24.92
2018-08-06T05:55:28.416Z,25.17
2018-08-06T05:57:57.041Z,25.00
2018-08-06T06:00:25.711Z,24.60
2018-08-06T06:02:54.362Z,24.75
2018-08-06T06:05:23.022Z,25.01
2018-08-06T06:07:51.642Z,25.26
2018-08-06T06:10:20.236Z,25.56
2018-08-06T06:12:48.950Z,25.54
2018-08-06T06:15:17.870Z,25.61
2018-08-06T06:17:46.541Z,26.29
2018-08-06T06:20:15.138Z,26.74
2018-08-06T06:22:43.802Z,26.90
2018-08-06T06:25:13.329Z,26.95
2018-08-06T06:27:42.495Z,26.99
2018-08-06T06:30:14.834Z,27.76
2018-08-06T06:32:43.559Z,27.91
2018-08-06T06:35:12.923Z,27.49
2018-08-06T06:37:41.568Z,27.83
2018-08-06T06:40:10.250Z,27.98
2018-08-06T06:42:38.871Z,27.93
2018-08-06T06:45:08.454Z,28.09
2018-08-06T06:47:37.093Z,27.97
2018-08-06T06:50:06.292Z,27.97
2018-08-06T06:52:34.946Z,27.82
2018-08-06T06:55:03.622Z,27.79
2018-08-06T06:57:32.280Z,27.67
2018-08-06T07:00:00.977Z,27.60
2018-08-06T07:02:29.699Z,27.60
2018-08-06T07:07:32.264Z,28.24
2018-08-06T07:10:00.971Z,28.40
2018-08-06T07:12:29.613Z,27.91
2018-08-06T07:14:58.327Z,28.30
2018-08-06T07:17:27.040Z,29.06
2018-08-06T07:19:55.682Z,28.77
2018-08-06T07:22:24.469Z,28.88
2018-08-06T07:24:53.555Z,28.98
2018-08-06T07:27:22.258Z,29.14
2018-08-06T07:29:50.952Z,29.14
2018-08-06T07:32:19.651Z,28.67
2018-08-06T07:34:48.268Z,29.40
2018-08-06T07:37:16.917Z,29.35
2018-08-06T07:39:45.530Z,29.56
2018-08-06T07:42:14.276Z,29.72
2018-08-06T07:44:43.026Z,29.75
2018-08-06T07:47:11.723Z,29.69
2018-08-06T07:49:40.343Z,29.71
2018-08-06T07:52:09.083Z,29.84
2018-08-06T07:54:37.695Z,30.01
2018-08-06T07:57:06.469Z,30.07
2018-08-06T07:59:35.204Z,30.28
2018-08-06T08:02:03.914Z,30.07
2018-08-06T08:04:32.647Z,30.55
2018-08-06T08:07:01.386Z,30.93
2018-08-06T08:09:30.139Z,30.88
2018-08-06T08:11:58.921Z,30.44
2018-08-06T08:14:27.667Z,31.12
2018-08-06T08:16:56.350Z,31.55
2018-08-06T08:19:25.076Z,31.14
2018-08-06T08:21:53.734Z,31.25
2018-08-06T08:24:22.427Z,31.51
2018-08-06T08:26:51.216Z,31.36
2018-08-06T08:29:19.882Z,31.45
2018-08-06T08:31:48.546Z,30.44
2018-08-06T08:34:17.272Z,31.02
2018-08-06T08:36:45.969Z,31.70
2018-08-06T08:39:14.661Z,32.08
2018-08-06T08:41:43.291Z,32.75
2018-08-06T08:44:11.926Z,33.18
2018-08-06T08:46:40.626Z,32.84
2018-08-06T08:49:09.262Z,32.41
2018-08-06T08:51:37.949Z,32.57
2018-08-06T08:54:06.825Z,32.52
2018-08-06T08:56:35.514Z,32.53
2018-08-06T08:59:04.255Z,32.61
2018-08-06T09:01:32.946Z,32.03
2018-08-06T09:04:01.641Z,31.92
2018-08-06T09:06:30.377Z,31.83
2018-08-06T09:08:59.062Z,31.73
2018-08-06T09:11:27.690Z,32.39
2018-08-06T09:13:56.422Z,33.34
2018-08-06T09:16:25.095Z,33.48
2018-08-06T09:18:53.915Z,33.30
2018-08-06T09:21:22.615Z,33.01
2018-08-06T09:23:51.214Z,33.22
2018-08-06T09:26:19.835Z,32.59
2018-08-06T09:28:48.517Z,32.93
2018-08-06T09:31:17.169Z,33.08
2018-08-06T09:33:45.850Z,32.97
2018-08-06T09:36:14.522Z,33.19
2018-08-06T09:38:43.185Z,33.81
2018-08-06T09:41:12.148Z,34.53
2018-08-06T09:43:40.866Z,34.76
2018-08-06T09:46:09.589Z,35.27
2018-08-06T09:48:38.276Z,35.24
2018-08-06T09:51:07.014Z,35.40
2018-08-06T09:53:35.774Z,35.13
2018-08-06T09:56:04.467Z,34.69
2018-08-06T09:58:33.149Z,34.94
2018-08-06T10:01:06.986Z,34.28
2018-08-06T10:03:35.624Z,33.71
2018-08-06T10:06:04.367Z,33.27
2018-08-06T10:08:32.971Z,33.43
2018-08-06T10:11:01.703Z,33.66
2018-08-06T10:13:30.382Z,33.98
2018-08-06T10:15:59.091Z,34.44
2018-08-06T10:18:27.794Z,34.91
2018-08-06T10:20:56.419Z,34.62
2018-08-06T10:23:25.082Z,34.71
2018-08-06T10:25:53.757Z,35.34
2018-08-06T10:28:22.397Z,35.48
2018-08-06T10:30:51.039Z,35.13
2018-08-06T10:33:19.660Z,35.66
2018-08-06T10:35:48.262Z,35.65
2018-08-06T10:38:16.882Z,35.75
2018-08-06T10:40:45.498Z,36.04
2018-08-06T10:43:14.186Z,35.97
2018-08-06T10:45:42.800Z,35.58
2018-08-06T10:48:11.486Z,35.17
2018-08-06T10:50:40.185Z,34.34
2018-08-06T10:53:08.950Z,34.59
2018-08-06T10:55:37.665Z,34.50
2018-08-06T10:58:06.354Z,33.94
2018-08-06T11:00:35.009Z,34.55
2018-08-06T11:03:03.635Z,34.67
2018-08-06T11:05:32.297Z,34.84
2018-08-06T11:08:00.975Z,35.87
2018-08-06T11:10:29.646Z,36.30
2018-08-06T11:12:58.324Z,36.28
2018-08-06T11:15:27.401Z,36.30
2018-08-06T11:17:56.063Z,36.32
2018-08-06T11:20:24.958Z,36.21
2018-08-06T11:22:53.578Z,35.15
2018-08-06T11:25:22.941Z,35.52
2018-08-06T11:27:51.549Z,36.15
2018-08-06T11:30:21.433Z,35.04
2018-08-06T11:32:50.690Z,35.42
2018-08-06T11:35:19.418Z,36.34
2018-08-06T11:37:48.137Z,35.97
2018-08-06T11:40:17.401Z,35.69
2018-08-06T11:42:46.709Z,35.06
2018-08-06T11:45:19.766Z,34.67
2018-08-06T11:47:48.452Z,34.57
2018-08-06T11:50:17.169Z,35.70
2018-08-06T11:52:45.933Z,36.13
2018-08-06T11:55:14.866Z,37.08
2018-08-06T11:57:43.458Z,37.28
2018-08-06T12:00:14.998Z,37.00
2018-08-06T12:02:43.950Z,36.75
2018-08-06T12:05:12.889Z,36.00
2018-08-06T12:07:41.522Z,35.57
2018-08-06T12:10:13.021Z,36.41
2018-08-06T12:12:42.149Z,35.70
2018-08-06T12:15:11.274Z,35.75
2018-08-06T12:17:40.810Z,33.76
2018-08-06T12:20:12.380Z,33.44
2018-08-06T12:22:42.121Z,34.10
2018-08-06T12:25:11.872Z,34.81
2018-08-06T12:27:40.846Z,35.49
2018-08-06T12:30:12.016Z,35.13
2018-08-06T12:32:40.695Z,34.29
2018-08-06T12:35:09.488Z,33.99
2018-08-06T12:37:38.146Z,34.12
2018-08-06T12:40:09.301Z,34.08
2018-08-06T12:42:37.997Z,33.80
2018-08-06T12:45:07.238Z,33.80
2018-08-06T12:47:35.917Z,33.66
2018-08-06T12:50:05.032Z,33.27
2018-08-06T12:52:33.664Z,32.87
2018-08-06T12:55:02.246Z,32.81
2018-08-06T12:57:30.843Z,32.94
2018-08-06T12:59:59.445Z,33.12
2018-08-06T13:02:28.126Z,32.87
2018-08-06T13:04:56.812Z,32.98
2018-08-06T13:07:25.448Z,32.70
2018-08-06T13:09:54.030Z,32.64
2018-08-06T13:12:22.724Z,32.50
2018-08-06T13:14:51.335Z,32.24
2018-08-06T13:17:19.917Z,32.53
2018-08-06T13:19:48.561Z,32.50
2018-08-06T13:22:17.291Z,32.49
2018-08-06T13:24:45.874Z,32.32
2018-08-06T13:27:14.483Z,32.33
2018-08-06T13:29:43.093Z,31.95
2018-08-06T13:32:11.678Z,31.57
2018-08-06T13:34:40.265Z,31.82
2018-08-06T13:37:08.906Z,32.11
2018-08-06T13:39:37.690Z,31.74
2018-08-06T13:42:06.377Z,31.72
2018-08-06T13:44:34.966Z,31.73
2018-08-06T13:47:03.580Z,31.69
2018-08-06T13:49:32.199Z,31.50
2018-08-06T13:52:00.910Z,31.54
2018-08-06T13:54:29.564Z,31.76
2018-08-06T13:56:58.222Z,31.80
2018-08-06T13:59:27.016Z,31.87
2018-08-06T14:01:55.576Z,31.58
2018-08-06T14:04:24.193Z,31.36
2018-08-06T14:06:52.823Z,31.24
2018-08-06T14:09:21.497Z,31.32
2018-08-06T14:11:50.169Z,31.16
2018-08-06T14:14:18.826Z,31.19
2018-08-06T14:16:47.405Z,31.09
2018-08-06T14:19:16.023Z,30.89
2018-08-06T14:21:44.679Z,30.78
2018-08-06T14:24:13.252Z,30.55
2018-08-06T14:26:41.998Z,30.69
2018-08-06T14:29:10.659Z,30.70
2018-08-06T14:31:39.407Z,30.69
2018-08-06T14:34:08.158Z,30.63
2018-08-06T14:36:36.766Z,30.50
2018-08-06T14:39:08.843Z,30.30
2018-08-06T14:41:37.528Z,30.35
2018-08-06T14:44:07.027Z,30.42
2018-08-06T14:46:36.257Z,30.42
2018-08-06T14:49:05.065Z,30.54
2018-08-06T14:51:33.769Z,30.60
2018-08-06T14:54:02.474Z,30.52
2018-08-06T14:56:31.120Z,30.39
2018-08-06T14:58:59.813Z,30.30
2018-08-06T15:01:28.513Z,30.47
2018-08-06T15:03:57.200Z,30.41
2018-08-06T15:06:25.871Z,30.30
2018-08-06T15:08:54.657Z,30.26
2018-08-06T15:11:23.391Z,30.24
2018-08-06T15:13:51.940Z,30.28
2018-08-06T15:16:20.764Z,30.24
2018-08-06T15:18:49.448Z,30.23
2018-08-06T15:21:18.110Z,30.21
2018-08-06T15:23:46.814Z,30.03
2018-08-06T15:26:15.481Z,29.94
2018-08-06T15:28:44.433Z,29.99
2018-08-06T15:31:13.056Z,29.90
2018-08-06T15:33:41.767Z,29.90
2018-08-06T15:36:10.415Z,29.80
2018-08-06T15:38:39.095Z,29.69
2018-08-06T15:41:08.008Z,29.61
2018-08-06T15:43:36.940Z,29.64
2018-08-06T15:46:05.599Z,29.50
2018-08-06T15:48:34.286Z,29.46
2018-08-06T15:51:02.892Z,29.38
2018-08-06T15:53:31.498Z,29.40
2018-08-06T15:56:00.235Z,29.35
2018-08-06T15:58:28.892Z,29.35
2018-08-06T16:00:57.615Z,29.36
2018-08-06T16:03:26.390Z,29.32
2018-08-06T16:05:55.002Z,29.32
2018-08-06T16:08:23.684Z,29.12
2018-08-06T16:10:53.155Z,28.97
2018-08-06T16:13:21.825Z,28.94
2018-08-06T16:15:50.517Z,28.84
2018-08-06T16:18:19.127Z,28.80
2018-08-06T16:20:47.864Z,28.78
2018-08-06T16:23:16.610Z,28.68
2018-08-06T16:25:45.355Z,28.62
2018-08-06T16:28:14.077Z,28.56
2018-08-06T16:30:42.740Z,28.55
2018-08-06T16:33:11.445Z,28.46
2018-08-06T16:35:40.087Z,28.45
2018-08-06T16:38:08.897Z,28.45
2018-08-06T16:40:37.503Z,28.44
2018-08-06T16:43:06.186Z,28.42
2018-08-06T16:45:34.903Z,28.35
2018-08-06T16:48:03.624Z,28.26
2018-08-06T16:50:32.367Z,28.17
2018-08-06T16:53:01.088Z,28.12
2018-08-06T16:55:29.732Z,28.10
2018-08-06T16:57:58.419Z,28.12
2018-08-06T17:00:27.069Z,28.10
2018-08-06T17:02:55.771Z,27.99
2018-08-06T17:05:24.520Z,27.88
2018-08-06T17:07:53.262Z,27.86
2018-08-06T17:10:22.347Z,27.83
2018-08-06T17:12:52.374Z,27.74
2018-08-06T17:15:21.859Z,27.65
2018-08-06T17:17:51.668Z,27.59
2018-08-06T17:20:21.538Z,27.45
2018-08-06T17:22:51.034Z,27.41
2018-08-06T17:25:19.822Z,27.24
2018-08-06T17:27:48.536Z,27.15
2018-08-06T17:30:17.886Z,27.07
2018-08-06T17:32:46.675Z,27.01
2018-08-06T17:35:15.932Z,26.92
2018-08-06T17:37:44.676Z,26.89
2018-08-06T17:40:15.385Z,26.75
2018-08-06T17:42:44.114Z,26.59
2018-08-06T17:45:15.919Z,26.56
2018-08-06T17:47:44.692Z,26.59
2018-08-06T17:50:15.267Z,26.59
2018-08-06T17:52:44.833Z,26.55
2018-08-06T17:55:13.626Z,26.55
2018-08-06T17:57:42.369Z,26.54
2018-08-06T18:00:15.266Z,26.57
2018-08-06T18:02:43.942Z,26.61
2018-08-06T18:05:13.886Z,26.62
2018-08-06T18:07:42.871Z,26.62
2018-08-06T18:10:13.182Z,26.56
2018-08-06T18:12:42.431Z,26.48
2018-08-06T18:15:11.103Z,26.47
2018-08-06T18:17:39.882Z,26.41
2018-08-06T18:20:11.059Z,26.36
2018-08-06T18:22:39.666Z,26.32
2018-08-06T18:25:10.769Z,26.28
2018-08-06T18:27:39.560Z,26.23
2018-08-06T18:30:14.192Z,26.16
2018-08-06T18:32:42.944Z,26.13
2018-08-06T18:35:13.252Z,26.11
2018-08-06T18:37:41.963Z,26.09
2018-08-06T18:40:11.428Z,26.06
2018-08-06T18:42:40.156Z,26.00
2018-08-06T18:45:14.130Z,25.97
2018-08-06T18:47:43.644Z,25.93
2018-08-06T18:50:13.317Z,25.92
2018-08-06T18:52:42.731Z,25.84
2018-08-06T18:55:12.542Z,25.79
2018-08-06T18:57:41.545Z,25.72
2018-08-06T19:00:16.203Z,25.69
2018-08-06T19:02:45.027Z,25.65
2018-08-06T19:05:13.713Z,25.54
2018-08-06T19:07:43.032Z,25.51
2018-08-06T19:10:12.192Z,25.49
2018-08-06T19:12:52.613Z,25.38
2018-08-06T19:15:21.357Z,25.24
2018-08-06T19:17:55.230Z,25.20
2018-08-06T19:20:23.915Z,25.18
2018-08-06T19:22:52.556Z,25.12
2018-08-06T19:25:28.728Z,25.13
2018-08-06T19:27:57.402Z,25.11
2018-08-06T19:30:31.356Z,25.07
2018-08-06T19:33:00.499Z,25.01
2018-08-06T19:35:29.202Z,24.94
2018-08-06T19:37:57.809Z,24.80
2018-08-06T19:40:26.491Z,24.76
2018-08-06T19:43:00.366Z,24.76
2018-08-06T19:45:29.144Z,24.68
2018-08-06T19:48:01.435Z,24.63
2018-08-06T19:50:35.115Z,24.66
2018-08-06T19:53:03.791Z,24.69
2018-08-06T19:55:37.537Z,24.75
2018-08-06T19:58:06.424Z,24.67
2018-08-06T20:00:35.091Z,24.57
2018-08-06T20:03:03.740Z,24.58
2018-08-06T20:05:32.397Z,24.47
2018-08-06T20:08:01.139Z,24.41
2018-08-06T20:10:29.819Z,24.26
2018-08-06T20:12:58.448Z,24.26
2018-08-06T20:15:27.062Z,24.19
2018-08-06T20:17:55.986Z,24.09
2018-08-06T20:20:25.607Z,24.10
2018-08-06T20:22:55.397Z,24.18
2018-08-06T20:25:24.068Z,24.21
2018-08-06T20:27:52.835Z,24.14
2018-08-06T20:30:22.549Z,24.16
2018-08-06T20:32:51.221Z,24.00
2018-08-06T20:35:21.229Z,23.88
2018-08-06T20:37:49.874Z,23.86
2018-08-06T20:40:20.289Z,23.80
2018-08-06T20:42:49.062Z,23.50
2018-08-06T20:45:19.313Z,23.25
2018-08-06T20:47:48.169Z,23.11
2018-08-06T20:50:18.648Z,22.92
2018-08-06T20:52:48.305Z,22.87
2018-08-06T20:55:16.974Z,22.77
2018-08-06T20:57:45.879Z,22.60
2018-08-06T21:00:19.300Z,22.48
2018-08-06T21:02:48.599Z,22.40
2018-08-06T21:05:17.674Z,22.35
2018-08-06T21:07:46.343Z,22.29
2018-08-06T21:10:15.836Z,22.32
2018-08-06T21:12:44.607Z,22.33
2018-08-06T21:15:14.127Z,22.40
2018-08-06T21:17:42.949Z,22.35
2018-08-06T21:20:13.679Z,22.42
2018-08-06T21:22:43.458Z,22.50
2018-08-06T21:25:12.566Z,22.42
2018-08-06T21:27:42.247Z,22.47
2018-08-06T21:30:14.841Z,22.55
2018-08-06T21:32:47.257Z,22.59
2018-08-06T21:35:16.449Z,22.54
2018-08-06T21:37:45.373Z,22.49
2018-08-06T21:40:14.011Z,22.41
2018-08-06T21:42:42.649Z,22.49
2018-08-06T21:45:11.374Z,22.43
2018-08-06T21:47:40.011Z,22.41
2018-08-06T21:50:09.417Z,22.39
2018-08-06T21:52:38.080Z,22.05
2018-08-06T21:55:07.402Z,21.78
2018-08-06T21:57:36.058Z,21.65
2018-08-06T22:00:09.608Z,21.52
2018-08-06T22:02:38.223Z,21.66
2018-08-06T22:05:07.930Z,21.70
2018-08-06T22:07:36.592Z,21.61
2018-08-06T22:10:05.624Z,21.57
2018-08-06T22:12:34.274Z,21.47
2018-08-06T22:15:02.904Z,21.41
2018-08-06T22:17:31.563Z,21.29
2018-08-06T22:20:00.168Z,21.23
2018-08-06T22:22:28.764Z,21.14
2018-08-06T22:24:57.407Z,21.08
2018-08-06T22:27:26.061Z,21.03
2018-08-06T22:29:54.734Z,21.06
2018-08-06T22:32:23.325Z,21.10
2018-08-06T22:34:51.922Z,20.97
2018-08-06T22:37:20.642Z,20.86
2018-08-06T22:39:49.339Z,20.73
2018-08-06T22:42:18.039Z,20.64
2018-08-06T22:44:46.699Z,20.62
2018-08-06T22:47:15.334Z,20.65
2018-08-06T22:49:43.952Z,20.82
2018-08-06T22:52:12.598Z,20.93
2018-08-06T22:54:41.343Z,21.06
2018-08-06T22:57:10.028Z,20.98
2018-08-06T22:59:38.794Z,20.94
2018-08-06T23:02:07.544Z,20.98
2018-08-06T23:04:36.215Z,20.96
2018-08-06T23:07:04.943Z,21.01
2018-08-06T23:09:33.608Z,21.03
2018-08-06T23:12:02.312Z,21.13
2018-08-06T23:14:30.954Z,21.16
2018-08-06T23:16:59.660Z,21.10
2018-08-06T23:19:28.298Z,21.09
2018-08-06T23:21:57.120Z,21.13
2018-08-06T23:24:25.747Z,20.85
2018-08-06T23:26:54.444Z,20.94
2018-08-06T23:29:23.168Z,21.02
2018-08-06T23:31:51.918Z,21.05
2018-08-06T23:34:20.573Z,21.07
2018-08-06T23:36:49.202Z,21.12
2018-08-06T23:39:17.868Z,21.17
2018-08-06T23:41:46.546Z,21.08
2018-08-06T23:44:15.204Z,21.07
2018-08-06T23:46:43.877Z,21.23
2018-08-06T23:49:12.540Z,21.12
2018-08-06T23:51:41.183Z,21.09
2018-08-06T23:54:10.046Z,20.82
2018-08-06T23:56:38.714Z,20.88
2018-08-06T23:59:07.386Z,20.68
